Time;durP1;ratioP1;P1;durP2;ratioP2;P2;SDS_P1;SDS_P2;PMS_P1;PMS_P2;Temp;Humidity;BMP_temperature;BMP_pressure;BME280_temperature;BME280_humidity;BME280_pressure;Samples;Min_cycle;Max_cycle;Signal;HPM_P1;HPM_P2
2022/03/21 00:01:04;;;;;;;39.97;9.23;;;12.90;99.90;;;;;;4992945;28;20045;-76
2022/03/21 00:03:30;;;;;;;43.40;8.90;;;12.90;99.90;;;;;;4987977;28;20092;-77
2022/03/21 00:05:59;;;;;;;38.60;8.32;;;13.00;99.90;;;;;;5021513;28;20056;-76
2022/03/21 00:08:25;;;;;;;45.88;10.50;;;13.00;99.90;;;;;;5031073;28;20038;-76
2022/03/21 00:10:54;;;;;;;34.53;8.20;;;12.90;99.90;;;;;;5018274;28;20042;-77
2022/03/21 00:13:21;;;;;;;44.75;9.07;;;12.90;99.90;;;;;;5007417;28;20059;-76
2022/03/21 00:15:49;;;;;;;42.33;8.80;;;12.90;99.90;;;;;;5035734;28;20153;-76
2022/03/21 00:18:15;;;;;;;38.65;8.65;;;12.90;99.90;;;;;;5003728;28;20075;-77
2022/03/21 00:20:42;;;;;;;37.05;8.20;;;12.90;99.90;;;;;;4996487;28;20050;-78
2022/03/21 00:23:09;;;;;;;34.50;8.85;;;12.90;99.90;;;;;;5000717;28;20042;-76
2022/03/21 00:25:35;;;;;;;33.20;8.48;;;12.90;99.90;;;;;;4999953;28;20076;-76
2022/03/21 00:28:02;;;;;;;32.92;8.25;;;12.90;99.90;;;;;;4998346;28;20489;-75
2022/03/21 00:30:29;;;;;;;34.00;8.35;;;12.90;99.90;;;;;;5018491;28;20038;-76
2022/03/21 00:32:55;;;;;;;26.33;8.65;;;12.90;99.90;;;;;;4999981;28;20042;-76
2022/03/21 00:35:23;;;;;;;35.15;8.55;;;12.90;99.90;;;;;;5005880;28;20152;-75
2022/03/21 00:37:49;;;;;;;33.63;9.23;;;12.90;99.90;;;;;;5012135;28;20069;-75
2022/03/21 00:40:17;;;;;;;33.00;8.15;;;12.90;99.90;;;;;;5000277;28;20042;-75
2022/03/21 00:42:45;;;;;;;35.00;8.38;;;12.90;99.90;;;;;;4999678;28;20424;-76
2022/03/21 00:45:19;;;;;;;35.50;8.90;;;12.90;99.90;;;;;;4996016;28;20104;-76
2022/03/21 00:47:49;;;;;;;37.13;8.57;;;12.90;99.90;;;;;;5016515;28;20444;-76
2022/03/21 00:50:16;;;;;;;34.13;8.30;;;12.90;99.90;;;;;;5025009;28;20116;-75
2022/03/21 00:52:43;;;;;;;31.38;8.07;;;12.90;99.90;;;;;;5036786;28;20057;-76
2022/03/21 00:55:11;;;;;;;29.40;8.30;;;12.90;99.90;;;;;;5002637;28;20125;-76
2022/03/21 00:57:40;;;;;;;35.10;8.50;;;12.90;99.90;;;;;;5032879;28;20178;-75
2022/03/21 01:00:08;;;;;;;32.45;8.27;;;12.90;99.90;;;;;;5016101;28;20045;-76
2022/03/21 01:02:36;;;;;;;31.20;7.53;;;12.90;99.90;;;;;;5018263;28;20042;-76
2022/03/21 01:05:02;;;;;;;33.67;8.20;;;12.80;99.90;;;;;;4986470;28;20157;-75
2022/03/21 01:07:28;;;;;;;37.67;8.25;;;12.90;99.90;;;;;;5003469;28;20057;-76
2022/03/21 01:09:54;;;;;;;34.22;8.55;;;12.90;99.90;;;;;;5002363;28;20034;-76
2022/03/21 01:12:19;;;;;;;36.90;8.88;;;12.90;99.90;;;;;;5036620;28;20093;-76
2022/03/21 01:14:45;;;;;;;38.28;9.30;;;12.90;99.90;;;;;;5033436;28;20121;-75
2022/03/21 01:17:11;;;;;;;33.88;8.40;;;12.90;99.90;;;;;;5033729;28;20064;-76
2022/03/21 01:19:37;;;;;;;35.92;8.90;;;12.90;99.90;;;;;;5006112;28;20042;-76
2022/03/21 01:22:06;;;;;;;27.83;7.65;;;12.90;99.90;;;;;;5017660;28;20049;-76
2022/03/21 01:24:33;;;;;;;43.17;10.13;;;12.80;99.90;;;;;;5037448;28;20049;-76
2022/03/21 01:26:59;;;;;;;35.45;8.57;;;12.80;99.90;;;;;;5001256;28;20038;-76
2022/03/21 01:29:24;;;;;;;34.15;7.75;;;12.80;99.90;;;;;;5036216;28;20756;-76
2022/03/21 01:31:50;;;;;;;32.80;8.02;;;12.80;99.90;;;;;;5033740;28;20129;-76
2022/03/21 01:34:16;;;;;;;33.20;7.68;;;12.70;99.90;;;;;;4998345;28;20046;-75
2022/03/21 01:36:42;;;;;;;33.42;7.93;;;12.70;99.90;;;;;;5020859;28;20101;-76
2022/03/21 01:39:08;;;;;;;31.10;8.57;;;12.70;99.90;;;;;;5000249;28;20037;-75
2022/03/21 01:41:34;;;;;;;27.38;7.22;;;12.60;99.90;;;;;;5002721;28;20629;-75
2022/03/21 01:44:02;;;;;;;29.15;7.78;;;12.60;99.90;;;;;;5032513;28;20041;-74
2022/03/21 01:46:29;;;;;;;33.65;7.80;;;12.60;99.90;;;;;;5033374;28;20042;-74
2022/03/21 01:48:56;;;;;;;32.78;7.47;;;12.50;99.90;;;;;;5015785;28;20046;-75
2022/03/21 01:51:22;;;;;;;26.52;6.75;;;12.50;99.90;;;;;;4997671;28;21073;-74
2022/03/21 01:56:34;;;;;;;26.08;6.75;;;12.50;99.90;;;;;;5001121;28;20052;-74
2022/03/21 01:59:00;;;;;;;29.27;7.20;;;12.50;99.90;;;;;;5000294;28;20034;-75
2022/03/21 02:01:26;;;;;;;29.60;8.07;;;12.50;99.90;;;;;;4998950;28;20042;-74
2022/03/21 02:03:52;;;;;;;25.98;7.75;;;12.50;99.90;;;;;;5014668;28;20034;-75
2022/03/21 02:06:18;;;;;;;29.42;7.90;;;12.60;99.90;;;;;;5030196;28;20131;-76
2022/03/21 02:08:44;;;;;;;37.45;8.93;;;12.60;99.90;;;;;;5028348;28;20120;-76
2022/03/21 02:11:10;;;;;;;29.48;8.10;;;12.50;99.90;;;;;;4997788;28;20054;-75
2022/03/21 02:13:37;;;;;;;28.25;8.55;;;12.50;99.90;;;;;;5003016;28;20049;-76
2022/03/21 02:16:04;;;;;;;27.55;8.68;;;12.50;99.90;;;;;;5016406;28;20123;-75
2022/03/21 02:18:32;;;;;;;32.72;8.43;;;12.50;99.90;;;;;;5031718;28;20038;-76
2022/03/21 02:21:00;;;;;;;29.33;8.15;;;12.50;99.90;;;;;;5001930;28;20038;-76
2022/03/21 02:23:56;;;;;;;35.22;9.27;;;12.50;99.90;;;;;;5012553;28;20073;-76
2022/03/21 02:26:24;;;;;;;36.17;9.60;;;12.40;99.90;;;;;;4998370;28;20095;-76
2022/03/21 02:28:51;;;;;;;28.52;8.02;;;12.40;99.90;;;;;;5016981;28;20030;-76
2022/03/21 02:31:18;;;;;;;34.53;8.95;;;12.40;99.90;;;;;;4998368;28;20631;-75
2022/03/21 02:33:46;;;;;;;36.13;9.07;;;12.40;99.90;;;;;;5034946;28;20505;-76
2022/03/21 02:36:16;;;;;;;32.63;9.05;;;12.40;99.90;;;;;;5014958;28;20049;-75
2022/03/21 02:38:42;;;;;;;32.05;7.90;;;12.40;99.90;;;;;;5009085;28;20042;-76
2022/03/21 02:41:08;;;;;;;41.75;9.90;;;12.40;99.90;;;;;;4996910;28;20053;-76
2022/03/21 02:43:53;;;;;;;46.80;9.05;;;12.30;99.90;;;;;;5015517;28;20035;-76
2022/03/21 02:46:20;;;;;;;36.55;8.40;;;12.30;99.90;;;;;;5016695;28;20105;-75
2022/03/21 02:48:47;;;;;;;31.95;8.10;;;12.40;99.90;;;;;;5006260;28;20046;-75
2022/03/21 02:51:14;;;;;;;31.13;8.60;;;12.40;99.90;;;;;;5032409;28;20124;-74
2022/03/21 02:53:42;;;;;;;24.08;8.18;;;12.40;99.90;;;;;;5007745;28;20101;-75
2022/03/21 02:56:09;;;;;;;37.80;8.13;;;12.40;99.90;;;;;;5007826;28;20061;-76
2022/03/21 02:58:35;;;;;;;31.85;7.78;;;12.30;99.90;;;;;;5011310;28;20044;-75
2022/03/21 03:01:07;;;;;;;37.10;9.60;;;12.30;99.90;;;;;;5029949;28;20203;-74
2022/03/21 03:03:34;;;;;;;37.25;8.77;;;12.30;99.90;;;;;;5005220;28;20042;-75
2022/03/21 03:05:59;;;;;;;35.83;8.82;;;12.30;99.90;;;;;;5015596;28;20040;-74
2022/03/21 03:08:25;;;;;;;37.50;9.88;;;12.30;99.90;;;;;;5027593;28;20034;-75
2022/03/21 03:10:51;;;;;;;34.72;8.38;;;12.30;99.90;;;;;;5002376;28;20064;-76
2022/03/21 03:13:17;;;;;;;46.58;9.23;;;12.30;99.90;;;;;;5001886;28;20042;-75
2022/03/21 03:15:43;;;;;;;36.55;8.80;;;12.30;99.90;;;;;;4999829;28;20117;-75
2022/03/21 03:18:09;;;;;;;32.22;8.82;;;12.30;99.90;;;;;;5029080;28;20029;-75
2022/03/21 03:20:35;;;;;;;34.72;8.68;;;12.30;99.90;;;;;;5000498;28;20392;-75
2022/03/21 03:23:03;;;;;;;33.13;8.57;;;12.30;99.90;;;;;;5003925;28;20030;-75
2022/03/21 03:25:29;;;;;;;33.67;8.90;;;12.40;99.90;;;;;;5014341;28;20555;-75
2022/03/21 03:27:55;;;;;;;30.90;8.80;;;12.40;99.90;;;;;;5036537;28;20038;-75
2022/03/21 03:30:21;;;;;;;34.90;8.27;;;12.40;99.90;;;;;;5003539;28;20048;-76
2022/03/21 03:32:47;;;;;;;33.67;8.80;;;12.40;99.90;;;;;;4999219;28;20128;-75
2022/03/21 03:35:13;;;;;;;28.05;8.00;;;12.40;99.90;;;;;;5002863;28;20096;-76
2022/03/21 03:37:40;;;;;;;22.95;7.90;;;12.30;99.90;;;;;;5015383;28;20037;-76
2022/03/21 03:40:06;;;;;;;23.33;7.18;;;12.30;99.90;;;;;;4999802;28;20080;-75
2022/03/21 03:42:32;;;;;;;26.85;8.40;;;12.30;99.90;;;;;;4999307;28;20042;-75
2022/03/21 03:44:58;;;;;;;30.42;7.75;;;12.30;99.90;;;;;;5017741;28;20420;-75
2022/03/21 03:47:24;;;;;;;30.65;8.13;;;12.30;99.90;;;;;;5029116;28;20038;-74
2022/03/21 03:49:50;;;;;;;27.65;7.97;;;12.20;99.90;;;;;;5032763;28;20030;-75
2022/03/21 03:52:16;;;;;;;30.25;9.00;;;12.20;99.90;;;;;;5028003;28;20045;-75
2022/03/21 03:54:42;;;;;;;31.15;7.78;;;12.20;99.90;;;;;;5001491;28;20129;-75
2022/03/21 03:57:10;;;;;;;26.48;7.45;;;12.20;99.90;;;;;;4998448;28;20038;-75
2022/03/21 03:59:37;;;;;;;25.80;7.93;;;12.20;99.90;;;;;;5032057;28;20038;-76
2022/03/21 04:02:03;;;;;;;31.83;7.72;;;12.10;99.90;;;;;;4997182;28;20129;-75
2022/03/21 04:04:29;;;;;;;27.65;7.35;;;12.10;99.90;;;;;;5016250;28;20547;-75
2022/03/21 04:06:55;;;;;;;33.13;8.48;;;12.10;99.90;;;;;;5030593;28;20048;-75
2022/03/21 04:09:21;;;;;;;25.70;7.95;;;12.10;99.90;;;;;;5029887;28;20048;-76
2022/03/21 04:11:46;;;;;;;26.15;7.40;;;12.10;99.90;;;;;;5000853;28;20048;-74
2022/03/21 04:14:12;;;;;;;27.98;7.60;;;12.00;99.90;;;;;;5029137;28;20054;-76
2022/03/21 04:16:43;;;;;;;28.23;8.85;;;12.00;99.90;;;;;;5014172;28;20049;-77
2022/03/21 04:19:09;;;;;;;28.08;8.70;;;12.00;99.90;;;;;;4984867;28;20121;-75
2022/03/21 04:21:34;;;;;;;37.10;9.63;;;12.00;99.90;;;;;;4996348;28;20184;-75
2022/03/21 04:24:00;;;;;;;34.08;8.68;;;12.00;99.90;;;;;;5031510;28;20117;-75
2022/03/21 04:26:26;;;;;;;29.23;7.90;;;12.00;99.90;;;;;;5000044;28;20049;-75
2022/03/21 04:28:53;;;;;;;35.42;8.02;;;12.00;99.90;;;;;;5035507;28;20042;-75
2022/03/21 04:31:18;;;;;;;29.67;8.05;;;12.00;99.90;;;;;;5035457;28;20100;-76
2022/03/21 04:33:44;;;;;;;28.38;8.35;;;12.10;99.90;;;;;;5009825;28;20398;-75
2022/03/21 04:36:10;;;;;;;28.90;8.10;;;12.00;99.90;;;;;;5031556;28;20109;-76
2022/03/21 04:38:36;;;;;;;34.05;8.07;;;12.10;99.90;;;;;;5000479;28;20038;-76
2022/03/21 04:41:02;;;;;;;33.28;7.85;;;12.00;99.90;;;;;;5035561;28;20038;-76
2022/03/21 04:43:28;;;;;;;25.02;7.80;;;12.10;99.90;;;;;;5019562;28;20116;-75
2022/03/21 04:45:54;;;;;;;30.52;8.10;;;12.10;99.90;;;;;;5035852;28;20046;-75
2022/03/21 04:48:20;;;;;;;27.50;7.82;;;12.10;99.90;;;;;;5002678;28;20057;-76
2022/03/21 04:50:47;;;;;;;29.05;7.78;;;12.20;99.90;;;;;;5001012;28;20044;-76
2022/03/21 04:53:13;;;;;;;27.15;7.43;;;12.30;99.90;;;;;;5033928;28;20152;-77
2022/03/21 04:55:40;;;;;;;20.92;6.70;;;12.30;99.90;;;;;;5008764;28;20030;-76
2022/03/21 04:58:06;;;;;;;28.45;8.57;;;12.30;99.90;;;;;;4998330;28;20030;-75
2022/03/21 05:00:32;;;;;;;29.13;8.10;;;12.40;99.90;;;;;;5000250;28;20091;-76
2022/03/21 05:02:59;;;;;;;24.55;7.65;;;12.40;99.90;;;;;;5013327;28;20034;-75
2022/03/21 05:05:25;;;;;;;26.27;7.03;;;12.50;99.90;;;;;;5003042;28;20033;-75
2022/03/21 05:07:53;;;;;;;22.65;7.18;;;12.50;99.90;;;;;;5003575;28;20125;-75
2022/03/21 05:10:24;;;;;;;27.40;7.55;;;12.50;99.90;;;;;;5034719;28;20783;-75
2022/03/21 05:12:50;;;;;;;28.83;7.50;;;12.50;99.90;;;;;;5002717;28;20128;-75
2022/03/21 05:15:16;;;;;;;22.35;8.20;;;12.50;99.90;;;;;;4991776;28;20045;-75
2022/03/21 05:17:43;;;;;;;26.70;7.55;;;12.50;99.90;;;;;;5036046;28;20053;-76
2022/03/21 05:20:16;;;;;;;26.08;7.47;;;12.50;99.90;;;;;;5034200;28;20072;-77
2022/03/21 05:30:57;;;;;;;36.72;7.72;;;12.40;99.90;;;;;;5034580;28;20030;-75
2022/03/21 05:31:04;;;;;;;24.63;7.97;;;12.50;99.90;;;;;;5003117;28;20049;-75
2022/03/21 05:36:17;;;;;;;31.70;8.32;;;12.50;99.90;;;;;;5002545;28;20052;-75
2022/03/21 05:38:43;;;;;;;28.67;8.85;;;12.50;99.90;;;;;;5001822;28;20037;-76
2022/03/21 05:41:09;;;;;;;25.00;7.38;;;12.50;99.90;;;;;;5003001;28;20049;-75
2022/03/21 05:43:35;;;;;;;32.00;8.23;;;12.50;99.90;;;;;;5036470;28;20042;-76
2022/03/21 05:46:03;;;;;;;20.60;7.88;;;12.50;99.90;;;;;;5031356;28;20045;-77
2022/03/21 05:48:51;;;;;;;30.90;7.70;;;12.50;99.90;;;;;;5012904;28;20038;-76
2022/03/21 05:51:40;;;;;;;32.58;8.95;;;12.50;99.90;;;;;;4986295;28;20057;-77
2022/03/21 05:54:15;;;;;;;28.33;8.15;;;12.50;99.90;;;;;;5030714;28;20035;-74
2022/03/21 05:56:43;;;;;;;26.23;8.27;;;12.50;99.90;;;;;;5036091;28;20496;-75
2022/03/21 06:01:54;;;;;;;26.70;8.38;;;12.50;99.90;;;;;;5002526;28;20080;-75
2022/03/21 06:04:23;;;;;;;27.50;8.32;;;12.40;99.90;;;;;;5034275;28;20089;-76
2022/03/21 06:06:49;;;;;;;24.35;7.78;;;12.40;99.90;;;;;;5001513;28;20033;-76
2022/03/21 06:09:15;;;;;;;31.52;8.52;;;12.50;99.90;;;;;;5003511;28;20053;-76
2022/03/21 06:11:42;;;;;;;28.33;8.43;;;12.50;99.90;;;;;;5006072;28;20460;-75
2022/03/21 06:14:09;;;;;;;29.35;7.63;;;12.50;99.90;;;;;;5035370;28;20107;-76
2022/03/21 06:16:35;;;;;;;27.90;7.72;;;12.50;99.90;;;;;;5002210;28;20030;-76
2022/03/21 06:19:02;;;;;;;29.95;8.00;;;12.50;99.90;;;;;;5001286;28;20535;-77
2022/03/21 06:21:29;;;;;;;27.10;8.00;;;12.50;99.90;;;;;;5002394;28;20038;-76
2022/03/21 06:23:55;;;;;;;25.77;7.95;;;12.50;99.90;;;;;;5031216;28;20058;-78
2022/03/21 06:26:21;;;;;;;26.02;8.35;;;12.50;99.90;;;;;;5006932;28;20033;-75
2022/03/21 06:28:48;;;;;;;30.60;7.90;;;12.60;99.90;;;;;;5020353;28;20378;-75
2022/03/21 06:31:14;;;;;;;26.35;8.35;;;12.60;99.90;;;;;;5030054;28;20042;-76
2022/03/21 06:33:41;;;;;;;31.30;9.10;;;12.60;99.90;;;;;;5002802;28;20046;-76
2022/03/21 06:36:07;;;;;;;23.83;7.82;;;12.60;99.90;;;;;;5031124;28;20046;-76
2022/03/21 06:38:33;;;;;;;22.17;7.55;;;12.60;99.90;;;;;;5002395;28;20042;-76
2022/03/21 06:41:01;;;;;;;28.63;7.80;;;12.60;99.90;;;;;;5009825;28;20038;-76
2022/03/21 06:43:27;;;;;;;26.02;7.93;;;12.60;99.90;;;;;;5003730;28;20113;-76
2022/03/21 06:45:55;;;;;;;31.02;8.30;;;12.60;99.90;;;;;;5031657;28;20040;-76
2022/03/21 06:48:22;;;;;;;28.58;8.73;;;12.60;99.90;;;;;;5036600;28;20030;-76
2022/03/21 06:50:50;;;;;;;27.35;8.73;;;12.60;99.90;;;;;;5003755;28;20080;-74
2022/03/21 06:53:18;;;;;;;31.77;9.60;;;12.60;99.90;;;;;;5003157;28;20041;-75
2022/03/21 06:55:45;;;;;;;25.23;8.25;;;12.70;99.90;;;;;;4998357;28;20038;-75
2022/03/21 06:58:13;;;;;;;27.65;8.02;;;12.70;99.90;;;;;;5034013;28;20034;-76
2022/03/21 07:00:40;;;;;;;30.08;8.45;;;12.70;99.90;;;;;;5032749;28;20034;-75
2022/03/21 07:03:07;;;;;;;32.72;9.38;;;12.70;99.90;;;;;;5003333;28;20038;-77
2022/03/21 07:05:36;;;;;;;26.65;8.57;;;12.70;99.90;;;;;;5009372;28;20026;-76
2022/03/21 07:08:04;;;;;;;28.70;7.78;;;12.80;99.90;;;;;;5032660;28;20389;-78
2022/03/21 07:10:32;;;;;;;25.38;8.70;;;12.80;99.90;;;;;;5036226;28;20408;-75
2022/03/21 07:13:00;;;;;;;25.52;8.00;;;12.80;99.90;;;;;;5010677;28;20072;-79
2022/03/21 07:15:25;;;;;;;27.83;8.07;;;12.80;99.90;;;;;;5037344;28;20046;-76
2022/03/21 07:17:55;;;;;;;20.38;8.18;;;12.80;99.90;;;;;;5034649;28;20137;-76
2022/03/21 07:20:21;;;;;;;24.70;8.30;;;12.80;99.90;;;;;;5007246;28;20037;-76
2022/03/21 07:22:47;;;;;;;32.55;9.70;;;12.80;99.90;;;;;;5008182;28;20037;-76
2022/03/21 07:25:13;;;;;;;22.25;8.70;;;12.80;99.90;;;;;;4989654;28;20483;-76
2022/03/21 07:27:42;;;;;;;24.75;8.55;;;12.90;99.90;;;;;;5034736;28;20042;-75
2022/03/21 07:30:09;;;;;;;26.08;8.88;;;12.90;99.90;;;;;;5018404;28;20141;-77
2022/03/21 07:32:34;;;;;;;32.78;8.80;;;12.90;99.90;;;;;;5033157;28;20046;-76
2022/03/21 07:35:00;;;;;;;29.73;9.52;;;12.90;99.90;;;;;;5031470;28;20400;-75
2022/03/21 07:37:26;;;;;;;26.70;9.10;;;12.80;99.90;;;;;;5027612;28;20058;-75
2022/03/21 07:39:52;;;;;;;29.77;9.18;;;12.80;99.90;;;;;;5012787;28;20090;-76
2022/03/21 07:42:19;;;;;;;28.95;8.82;;;12.90;99.90;;;;;;5035548;28;20476;-77
2022/03/21 07:47:30;;;;;;;33.05;10.32;;;12.90;99.90;;;;;;5002634;28;20053;-76
2022/03/21 07:49:56;;;;;;;26.27;8.65;;;13.00;99.90;;;;;;5014150;28;20038;-75
2022/03/21 07:52:23;;;;;;;32.42;9.00;;;13.10;99.90;;;;;;5036327;28;20056;-76
2022/03/21 07:54:52;;;;;;;25.67;8.05;;;13.20;99.90;;;;;;5014424;28;20052;-76
2022/03/21 07:57:19;;;;;;;29.58;9.15;;;13.20;99.90;;;;;;5000062;28;20172;-76
2022/03/21 07:59:45;;;;;;;24.35;8.50;;;13.30;99.90;;;;;;5016889;28;20053;-75
2022/03/21 08:02:11;;;;;;;22.25;8.75;;;13.30;99.90;;;;;;5001409;28;20038;-76
2022/03/21 08:04:37;;;;;;;29.15;8.20;;;13.30;99.90;;;;;;5009293;28;20050;-76
2022/03/21 08:07:04;;;;;;;27.30;8.52;;;13.40;99.90;;;;;;4977086;28;20038;-76
2022/03/21 08:09:29;;;;;;;27.20;8.30;;;13.40;99.90;;;;;;4979973;28;20870;-76
2022/03/21 08:11:57;;;;;;;25.15;8.38;;;13.40;99.90;;;;;;5011195;28;20037;-76
2022/03/21 08:14:24;;;;;;;22.83;8.65;;;13.40;99.90;;;;;;5030252;28;20050;-78
2022/03/21 08:16:51;;;;;;;25.75;8.57;;;13.40;99.90;;;;;;5001616;28;20069;-76
2022/03/21 08:19:18;;;;;;;28.38;7.90;;;13.30;99.90;;;;;;4998934;28;20046;-75
2022/03/21 08:21:45;;;;;;;28.88;8.93;;;13.20;99.90;;;;;;4997944;28;20034;-76
2022/03/21 08:24:12;;;;;;;23.85;8.52;;;13.10;99.90;;;;;;5031613;28;20034;-74
2022/03/21 08:26:39;;;;;;;30.52;9.82;;;13.00;99.90;;;;;;5017213;28;20037;-75
2022/03/21 08:29:06;;;;;;;29.85;9.05;;;13.00;99.90;;;;;;4993712;28;20042;-77
2022/03/21 08:31:32;;;;;;;29.15;9.50;;;12.90;99.90;;;;;;4997264;28;20026;-76
2022/03/21 08:33:58;;;;;;;32.63;10.20;;;12.90;99.90;;;;;;4998928;28;20036;-77
2022/03/21 08:36:24;;;;;;;24.25;9.27;;;12.70;99.90;;;;;;4996637;28;20152;-77
2022/03/21 08:38:50;;;;;;;30.42;10.00;;;12.90;99.90;;;;;;5016192;28;20476;-76
2022/03/21 08:41:16;;;;;;;29.48;9.15;;;13.00;99.90;;;;;;5015182;28;20073;-77
2022/03/21 08:43:43;;;;;;;29.13;10.27;;;13.20;99.90;;;;;;4989911;28;20038;-77
2022/03/21 08:46:09;;;;;;;27.67;8.02;;;13.30;99.90;;;;;;5001323;28;20045;-75
2022/03/21 08:51:19;;;;;;;24.17;9.02;;;13.50;99.90;;;;;;4998103;28;20396;-76
2022/03/21 08:53:45;;;;;;;28.20;7.70;;;13.60;99.90;;;;;;5022390;28;20136;-77
2022/03/21 08:56:11;;;;;;;27.50;7.97;;;13.80;99.90;;;;;;5000372;28;20035;-76
2022/03/21 08:58:37;;;;;;;24.27;7.20;;;13.90;99.90;;;;;;5033974;28;20457;-76
2022/03/21 09:01:03;;;;;;;21.30;6.30;;;13.80;99.90;;;;;;5000465;28;20049;-76
2022/03/21 09:03:28;;;;;;;24.70;6.40;;;14.20;99.90;;;;;;5000084;28;20169;-75
2022/03/21 09:05:54;;;;;;;24.05;6.30;;;14.30;99.90;;;;;;4984997;28;20123;-76
2022/03/21 09:08:20;;;;;;;27.70;6.68;;;14.60;99.90;;;;;;5034830;28;20087;-76
2022/03/21 09:10:47;;;;;;;19.38;5.57;;;14.90;99.90;;;;;;5007021;28;20049;-77
2022/03/21 09:13:13;;;;;;;19.00;5.47;;;15.00;99.90;;;;;;5000684;28;20038;-77
2022/03/21 09:15:39;;;;;;;18.40;5.68;;;15.20;99.90;;;;;;5001789;28;20049;-77
2022/03/21 09:18:06;;;;;;;25.95;5.68;;;15.20;99.90;;;;;;5033100;28;20396;-77
2022/03/21 09:20:32;;;;;;;22.27;5.88;;;15.10;99.90;;;;;;5038411;28;20049;-76
2022/03/21 09:22:59;;;;;;;21.88;5.80;;;14.90;99.90;;;;;;5022921;28;20491;-77
2022/03/21 09:25:25;;;;;;;17.65;5.18;;;15.00;99.90;;;;;;5005962;28;20039;-77
2022/03/21 09:27:52;;;;;;;20.20;5.30;;;15.00;99.90;;;;;;5035267;28;20045;-77
2022/03/21 09:30:17;;;;;;;23.80;6.20;;;15.00;99.90;;;;;;5003892;28;20515;-76
2022/03/21 09:32:43;;;;;;;18.85;5.25;;;14.80;99.90;;;;;;5002514;28;20038;-77
2022/03/21 09:35:10;;;;;;;21.23;5.45;;;14.90;99.90;;;;;;5023988;28;20053;-77
2022/03/21 09:37:36;;;;;;;17.17;5.18;;;15.00;99.90;;;;;;5030510;28;20053;-77
2022/03/21 09:40:04;;;;;;;17.80;4.72;;;15.30;99.90;;;;;;5034100;28;20045;-77
2022/03/21 09:42:30;;;;;;;18.80;5.05;;;15.60;99.90;;;;;;5000422;28;20043;-77
2022/03/21 09:44:56;;;;;;;19.58;4.70;;;15.80;99.90;;;;;;5040953;28;20080;-77
2022/03/21 09:50:13;;;;;;;20.90;4.32;;;16.70;99.90;;;;;;5007593;28;20053;-78
2022/03/21 09:52:39;;;;;;;19.48;5.53;;;16.50;99.90;;;;;;5017934;28;20076;-77
2022/03/21 09:55:07;;;;;;;16.83;4.20;;;16.60;99.90;;;;;;4995264;28;20080;-78
2022/03/21 09:57:34;;;;;;;21.45;4.53;;;16.20;99.90;;;;;;4995249;28;20045;-77
2022/03/21 10:00:00;;;;;;;11.13;4.53;;;16.40;99.90;;;;;;4993377;28;20315;-77
2022/03/21 10:02:26;;;;;;;20.58;5.72;;;16.40;99.90;;;;;;4996718;28;20037;-76
2022/03/21 10:04:55;;;;;;;16.63;5.10;;;16.90;99.90;;;;;;4998141;28;20091;-77
2022/03/21 10:07:25;;;;;;;14.50;4.63;;;16.70;99.90;;;;;;5033802;28;20097;-77
2022/03/21 10:10:16;;;;;;;20.80;5.55;;;16.80;99.90;;;;;;4999284;28;20091;-77
2022/03/21 10:12:42;;;;;;;17.02;4.25;;;16.80;99.90;;;;;;5013123;28;20041;-78
2022/03/21 10:15:10;;;;;;;15.52;4.45;;;16.60;99.90;;;;;;4996991;28;20046;-77
2022/03/21 10:17:37;;;;;;;19.35;4.70;;;16.30;99.90;;;;;;5036553;28;20065;-77
2022/03/21 10:20:04;;;;;;;18.85;5.10;;;16.00;99.90;;;;;;4998626;28;20117;-77
2022/03/21 10:22:37;;;;;;;19.15;5.47;;;15.70;99.90;;;;;;4999128;28;20113;-77
2022/03/21 10:25:06;;;;;;;16.30;4.55;;;15.60;99.90;;;;;;5010680;28;20759;-78
2022/03/21 10:27:44;;;;;;;24.33;5.85;;;15.80;99.90;;;;;;5012856;28;20496;-78
2022/03/21 10:30:18;;;;;;;15.38;4.53;;;16.00;99.90;;;;;;5012350;28;20054;-77
2022/03/21 10:32:51;;;;;;;16.88;5.30;;;15.80;99.90;;;;;;5028679;28;20524;-77
2022/03/21 10:35:23;;;;;;;14.73;5.10;;;15.80;99.90;;;;;;5030418;28;20048;-80
2022/03/21 10:37:58;;;;;;;25.00;4.93;;;16.10;99.90;;;;;;5008010;28;20121;-77
2022/03/21 10:40:24;;;;;;;19.05;5.07;;;16.50;99.90;;;;;;4994053;28;20044;-77
2022/03/21 10:42:52;;;;;;;23.00;4.90;;;16.60;99.90;;;;;;5002288;28;20512;-77
2022/03/21 10:45:20;;;;;;;18.20;4.22;;;16.80;99.90;;;;;;4997717;28;20042;-77
2022/03/21 10:47:53;;;;;;;18.17;4.90;;;16.40;99.90;;;;;;4997955;28;20840;-77
2022/03/21 10:50:37;;;;;;;18.77;4.72;;;16.50;99.90;;;;;;5000507;28;20052;-77
2022/03/21 10:53:13;;;;;;;14.60;4.40;;;16.00;99.90;;;;;;5008240;28;20076;-76
2022/03/21 10:55:41;;;;;;;20.48;4.93;;;16.10;99.90;;;;;;4998324;28;20030;-77
2022/03/21 10:58:09;;;;;;;22.35;4.88;;;16.10;99.90;;;;;;5045238;28;20045;-77
2022/03/21 11:00:35;;;;;;;16.52;4.90;;;16.00;99.90;;;;;;5023061;28;20133;-78
2022/03/21 11:03:16;;;;;;;12.05;4.25;;;16.20;99.90;;;;;;5039111;28;20049;-79
2022/03/21 11:05:44;;;;;;;19.52;5.15;;;16.40;99.90;;;;;;5005417;28;20037;-79
2022/03/21 11:08:13;;;;;;;19.88;5.10;;;17.20;99.90;;;;;;5032627;28;20052;-77
2022/03/21 11:10:39;;;;;;;14.13;4.35;;;17.60;99.90;;;;;;4999582;28;20141;-77
2022/03/21 11:13:07;;;;;;;16.00;5.03;;;17.90;99.90;;;;;;4992099;28;20064;-77
2022/03/21 11:15:35;;;;;;;16.33;4.35;;;18.60;99.90;;;;;;4998590;28;20053;-78
2022/03/21 11:18:02;;;;;;;16.33;4.32;;;18.80;99.90;;;;;;5032756;28;20396;-77
2022/03/21 11:20:29;;;;;;;16.75;4.72;;;18.90;99.90;;;;;;5003734;28;20046;-79
2022/03/21 11:22:56;;;;;;;20.42;5.38;;;18.30;99.90;;;;;;5002395;28;20180;-77
2022/03/21 11:25:35;;;;;;;17.67;4.60;;;18.30;99.90;;;;;;5033837;28;20097;-78
2022/03/21 11:28:27;;;;;;;15.65;5.38;;;18.20;99.90;;;;;;5017351;28;20076;-79
2022/03/21 11:31:11;;;;;;;13.13;4.30;;;17.60;99.90;;;;;;5002526;28;20591;-78
2022/03/21 11:34:16;;;;;;;16.10;4.90;;;17.70;99.90;;;;;;5026127;28;20057;-77
2022/03/21 11:36:56;;;;;;;16.02;4.75;;;17.70;99.90;;;;;;4995770;28;20037;-76
2022/03/21 11:39:24;;;;;;;18.88;4.95;;;17.30;99.90;;;;;;5013770;28;20120;-76
2022/03/21 11:42:08;;;;;;;17.42;5.47;;;16.70;99.90;;;;;;4995604;28;20033;-77
2022/03/21 11:44:36;;;;;;;13.15;4.50;;;16.60;99.90;;;;;;4998987;28;20052;-77
2022/03/21 11:47:24;;;;;;;18.05;4.47;;;16.60;99.90;;;;;;5035727;28;20046;-76
2022/03/21 11:49:51;;;;;;;15.45;4.97;;;17.20;99.90;;;;;;4991250;28;20096;-76
2022/03/21 11:52:17;;;;;;;18.85;4.20;;;17.80;99.90;;;;;;5026186;28;20050;-78
2022/03/21 11:54:44;;;;;;;14.82;4.30;;;18.10;99.90;;;;;;5036296;28;20049;-78
2022/03/21 11:57:25;;;;;;;15.20;5.07;;;18.10;99.90;;;;;;5028148;28;20060;-78
2022/03/21 11:59:53;;;;;;;17.30;5.03;;;17.90;99.90;;;;;;5046893;28;20034;-81
2022/03/21 12:02:22;;;;;;;13.93;4.65;;;17.90;99.90;;;;;;5029044;28;20069;-80
2022/03/21 12:05:03;;;;;;;15.93;4.05;;;18.00;99.90;;;;;;5029538;28;20041;-79
2022/03/21 12:07:30;;;;;;;17.70;5.35;;;17.80;99.90;;;;;;5001840;28;20038;-78
2022/03/21 12:09:57;;;;;;;15.13;4.68;;;18.00;99.90;;;;;;5005295;28;20042;-79
2022/03/21 12:12:42;;;;;;;15.73;4.70;;;18.30;99.90;;;;;;5035638;28;20041;-78
2022/03/21 12:15:29;;;;;;;14.32;4.43;;;18.30;99.90;;;;;;5010211;28;20069;-77
2022/03/21 12:17:56;;;;;;;16.92;4.78;;;18.00;99.90;;;;;;5025275;28;20038;-78
2022/03/21 12:20:23;;;;;;;17.15;4.93;;;18.70;99.90;;;;;;5004269;28;20045;-78
2022/03/21 12:22:51;;;;;;;17.40;4.55;;;19.50;99.90;;;;;;5033137;28;20041;-77
2022/03/21 12:25:29;;;;;;;16.13;4.72;;;19.50;99.90;;;;;;5033025;28;20052;-75
2022/03/21 12:28:19;;;;;;;17.25;4.50;;;19.50;99.90;;;;;;4998675;28;20038;-78
2022/03/21 12:30:48;;;;;;;14.63;4.30;;;18.50;99.90;;;;;;4999619;28;20050;-78
2022/03/21 12:33:14;;;;;;;15.73;4.95;;;18.00;99.90;;;;;;4998524;28;20034;-78
2022/03/21 12:35:44;;;;;;;15.95;4.43;;;17.60;99.90;;;;;;5003059;28;20361;-79
2022/03/21 12:38:34;;;;;;;12.45;4.45;;;17.70;99.90;;;;;;5032101;28;20590;-77
2022/03/21 12:41:03;;;;;;;18.50;4.38;;;17.50;99.90;;;;;;5014047;28;20038;-79
2022/03/21 12:43:52;;;;;;;14.00;4.50;;;17.70;99.90;;;;;;4973724;28;20069;-78
2022/03/21 12:46:20;;;;;;;17.52;5.25;;;17.30;99.90;;;;;;5036489;28;20053;-79
2022/03/21 12:48:59;;;;;;;23.42;5.95;;;17.20;99.90;;;;;;5033825;28;20042;-78
2022/03/21 12:51:32;;;;;;;24.90;5.45;;;17.50;99.90;;;;;;5005923;28;20082;-78
2022/03/21 12:54:01;;;;;;;11.90;4.30;;;18.10;99.90;;;;;;5017217;28;20041;-78
2022/03/21 12:56:27;;;;;;;13.68;4.97;;;18.30;99.90;;;;;;4997538;28;20038;-79
2022/03/21 12:59:03;;;;;;;14.90;4.88;;;18.70;99.90;;;;;;5036528;28;20409;-77
2022/03/21 13:01:30;;;;;;;12.07;3.92;;;19.20;99.90;;;;;;5006805;28;20038;-79
2022/03/21 13:12:37;;;;;;;15.73;4.10;;;17.80;99.90;;;;;;4996289;28;20088;-80